Time;durP1;ratioP1;P1;durP2;ratioP2;P2;SDS_P1;SDS_P2;PMS_P1;PMS_P2;Temp;Humidity;BMP_temperature;BMP_pressure;BME280_temperature;BME280_humidity;BME280_pressure;Samples;Min_cycle;Max_cycle;Signal;HPM_P1;HPM_P2
2022/06/13 00:00:12;;;;;;;5.60;2.70;;;15.30;99.90;;;;;;5071462;28;21105;-36
2022/06/13 00:02:37;;;;;;;5.90;3.10;;;15.20;99.90;;;;;;5072402;28;20181;-36
2022/06/13 00:05:06;;;;;;;7.17;2.47;;;15.10;99.90;;;;;;5072260;28;20429;-36
2022/06/13 00:07:32;;;;;;;3.70;2.30;;;15.10;99.90;;;;;;5070560;28;20925;-36
2022/06/13 00:09:58;;;;;;;4.03;2.83;;;15.00;99.90;;;;;;5071129;28;20442;-36
2022/06/13 00:12:25;;;;;;;3.50;2.70;;;15.00;99.90;;;;;;5072029;28;20458;-36
2022/06/13 00:14:50;;;;;;;4.03;3.20;;;14.90;99.90;;;;;;5072171;28;20550;-36
2022/06/13 00:17:16;;;;;;;4.93;2.97;;;14.70;99.90;;;;;;5071709;28;20584;-35
2022/06/13 00:19:42;;;;;;;3.90;2.90;;;14.70;99.90;;;;;;5072161;28;20633;-36
2022/06/13 00:22:08;;;;;;;3.63;2.83;;;14.70;99.90;;;;;;5067025;28;20538;-36
2022/06/13 00:24:34;;;;;;;6.67;3.03;;;14.60;99.90;;;;;;5071914;28;20209;-36
2022/06/13 00:27:00;;;;;;;4.70;2.90;;;14.60;99.90;;;;;;5069924;28;20189;-35
2022/06/13 00:29:26;;;;;;;3.33;3.00;;;14.50;99.90;;;;;;5071744;28;20431;-36
2022/06/13 00:31:52;;;;;;;5.10;2.87;;;14.50;99.90;;;;;;5070907;28;20424;-36
2022/06/13 00:34:18;;;;;;;7.03;2.80;;;14.40;99.90;;;;;;5071873;28;20305;-36
2022/06/13 00:36:43;;;;;;;3.43;3.00;;;14.30;99.90;;;;;;5069937;28;20590;-36
2022/06/13 00:39:09;;;;;;;5.40;2.90;;;14.20;99.90;;;;;;5071495;28;20579;-36
2022/06/13 00:41:38;;;;;;;5.93;3.73;;;14.20;99.90;;;;;;5071474;28;20189;-35
2022/06/13 00:44:21;;;;;;;5.13;3.07;;;14.20;99.90;;;;;;5071597;28;20407;-36
2022/06/13 00:46:47;;;;;;;3.00;2.80;;;14.20;99.90;;;;;;5070858;28;20427;-36
2022/06/13 00:49:19;;;;;;;5.10;2.73;;;14.10;99.90;;;;;;5071434;28;20434;-36
2022/06/13 00:51:49;;;;;;;5.00;3.20;;;14.10;99.90;;;;;;5071257;28;20778;-36
2022/06/13 00:54:18;;;;;;;4.17;3.00;;;14.00;99.90;;;;;;5071572;28;20435;-36
2022/06/13 00:56:45;;;;;;;6.80;3.37;;;14.00;99.90;;;;;;5066460;28;20520;-35
2022/06/13 00:59:14;;;;;;;3.27;2.83;;;13.90;99.90;;;;;;5062209;28;20907;-36
2022/06/13 01:01:40;;;;;;;5.03;3.23;;;13.90;99.90;;;;;;5071289;28;20412;-36
2022/06/13 01:04:07;;;;;;;5.60;3.33;;;13.90;99.90;;;;;;5071209;28;20917;-36
2022/06/13 01:06:40;;;;;;;3.17;2.70;;;13.80;99.90;;;;;;5069155;28;20188;-36
2022/06/13 01:09:08;;;;;;;6.40;3.23;;;13.80;99.90;;;;;;5071084;28;20419;-35
2022/06/13 01:11:38;;;;;;;7.00;3.20;;;13.70;99.90;;;;;;5071062;28;20431;-35
2022/06/13 01:14:22;;;;;;;4.77;3.07;;;13.70;99.90;;;;;;5069454;28;20430;-35
2022/06/13 01:17:14;;;;;;;6.93;3.07;;;13.70;99.90;;;;;;5070098;28;20511;-36
2022/06/13 01:20:06;;;;;;;3.80;3.50;;;13.70;99.90;;;;;;5070412;28;20415;-36
2022/06/13 01:22:35;;;;;;;4.73;3.30;;;13.60;99.90;;;;;;5062491;28;21120;-36
2022/06/13 01:25:18;;;;;;;5.30;4.00;;;13.60;99.90;;;;;;5070775;28;20414;-36
2022/06/13 01:28:09;;;;;;;5.07;2.73;;;13.50;99.90;;;;;;5068569;28;20419;-36
2022/06/13 01:31:01;;;;;;;5.23;3.13;;;13.40;99.90;;;;;;5069236;28;20408;-35
2022/06/13 01:33:43;;;;;;;5.30;3.63;;;13.50;99.90;;;;;;5070369;28;20415;-36
2022/06/13 01:36:39;;;;;;;5.23;3.10;;;13.40;99.90;;;;;;5070857;28;20463;-35
2022/06/13 01:39:13;;;;;;;5.40;2.70;;;13.40;99.90;;;;;;5070326;28;20511;-36
2022/06/13 01:42:01;;;;;;;5.30;2.83;;;13.40;99.90;;;;;;5070526;28;20464;-36
2022/06/13 01:44:51;;;;;;;5.83;3.50;;;13.40;99.90;;;;;;5070266;28;20411;-35
2022/06/13 01:47:19;;;;;;;5.40;4.10;;;13.30;99.90;;;;;;5069974;28;20502;-36
2022/06/13 01:49:56;;;;;;;5.67;4.03;;;13.20;99.90;;;;;;5070240;28;20415;-35
2022/06/13 01:52:28;;;;;;;7.23;3.43;;;13.20;99.90;;;;;;5046622;28;20879;-36
2022/06/13 01:55:12;;;;;;;6.43;3.00;;;13.10;99.90;;;;;;5070006;28;20458;-35
2022/06/13 01:57:53;;;;;;;6.10;3.63;;;13.10;99.90;;;;;;5056957;28;20421;-36
2022/06/13 02:00:31;;;;;;;4.90;3.80;;;13.10;99.90;;;;;;5057210;28;20418;-36
2022/06/13 02:03:27;;;;;;;5.80;3.43;;;13.10;99.90;;;;;;5070140;28;20430;-36
2022/06/13 02:06:12;;;;;;;4.93;3.20;;;13.10;99.90;;;;;;5070154;28;20419;-36
2022/06/13 02:08:44;;;;;;;7.90;3.70;;;13.20;99.90;;;;;;5069573;28;20419;-35
2022/06/13 02:11:34;;;;;;;5.53;4.20;;;13.30;99.90;;;;;;5069901;28;20484;-35
2022/06/13 02:14:52;;;;;;;6.93;3.37;;;13.40;99.90;;;;;;5070252;28;20416;-35
2022/06/13 02:17:20;;;;;;;5.50;3.43;;;13.40;99.90;;;;;;5046352;28;20427;-36
2022/06/13 02:19:56;;;;;;;3.93;3.30;;;13.40;99.90;;;;;;5033765;28;20495;-36
2022/06/13 02:22:33;;;;;;;4.60;3.27;;;13.40;99.90;;;;;;5054330;28;20534;-36
2022/06/13 02:25:21;;;;;;;6.73;4.70;;;13.40;99.90;;;;;;5069935;28;20442;-35
2022/06/13 02:27:59;;;;;;;6.30;3.53;;;13.40;99.90;;;;;;5068668;28;20983;-35
2022/06/13 02:30:50;;;;;;;4.23;3.30;;;13.40;99.90;;;;;;5068298;28;20423;-35
2022/06/13 02:33:24;;;;;;;5.77;3.80;;;13.30;99.90;;;;;;5069283;28;20419;-36
2022/06/13 02:35:56;;;;;;;4.97;3.20;;;13.30;99.90;;;;;;5069625;28;20534;-36
2022/06/13 02:38:25;;;;;;;5.07;3.83;;;13.30;99.90;;;;;;5069202;28;20419;-35
2022/06/13 02:40:56;;;;;;;4.67;3.33;;;13.30;99.90;;;;;;5069787;28;20435;-35
2022/06/13 02:43:32;;;;;;;5.60;3.57;;;13.30;99.90;;;;;;5069694;28;20457;-36
2022/06/13 02:46:28;;;;;;;5.47;4.10;;;13.30;99.90;;;;;;5068376;28;20425;-36
2022/06/13 02:49:07;;;;;;;6.10;3.83;;;13.30;99.90;;;;;;5069232;28;20757;-35
2022/06/13 02:51:57;;;;;;;5.50;3.57;;;13.30;99.90;;;;;;5068371;28;20442;-36
2022/06/13 02:54:32;;;;;;;6.07;3.33;;;13.40;99.90;;;;;;5069675;28;20774;-36
2022/06/13 02:57:34;;;;;;;4.00;3.60;;;13.40;99.90;;;;;;5062356;28;20531;-36
2022/06/13 03:00:37;;;;;;;7.30;4.33;;;13.40;99.90;;;;;;5044906;28;20414;-35
2022/06/13 03:03:20;;;;;;;4.43;3.67;;;13.40;99.90;;;;;;5069207;28;20480;-35
2022/06/13 03:06:00;;;;;;;9.40;4.10;;;13.40;99.90;;;;;;5069604;28;21272;-36
2022/06/13 03:08:44;;;;;;;10.77;4.57;;;13.40;99.90;;;;;;5068788;28;20415;-36
2022/06/13 03:11:16;;;;;;;7.87;3.90;;;13.30;99.90;;;;;;5069419;28;20420;-35
2022/06/13 03:13:48;;;;;;;6.10;3.97;;;13.40;99.90;;;;;;5069500;28;20431;-36
2022/06/13 03:16:52;;;;;;;6.27;4.00;;;13.40;99.90;;;;;;5069478;28;20459;-35
2022/06/13 03:19:40;;;;;;;10.67;4.73;;;13.40;99.90;;;;;;5069368;28;20419;-35
2022/06/13 03:22:23;;;;;;;9.47;4.67;;;13.40;99.90;;;;;;5065115;28;20768;-36
2022/06/13 03:25:23;;;;;;;5.90;3.70;;;13.50;99.90;;;;;;5069488;28;20793;-36
2022/06/13 03:28:13;;;;;;;6.17;4.37;;;13.50;99.90;;;;;;5056067;28;20431;-35
2022/06/13 03:30:44;;;;;;;5.87;3.90;;;13.60;99.90;;;;;;5067718;28;20986;-36
2022/06/13 03:36:09;;;;;;;7.93;3.87;;;13.60;99.90;;;;;;5069220;28;20467;-35
2022/06/13 03:38:44;;;;;;;4.83;4.20;;;13.60;99.90;;;;;;5068273;28;20461;-35
2022/06/13 03:41:14;;;;;;;6.00;4.37;;;13.60;99.90;;;;;;5069298;28;20422;-35
2022/06/13 03:43:45;;;;;;;4.70;3.77;;;13.60;99.90;;;;;;5070648;28;20444;-36
2022/06/13 03:46:19;;;;;;;6.83;3.87;;;13.60;99.90;;;;;;5073057;28;20799;-35
2022/06/13 03:48:55;;;;;;;5.97;4.20;;;13.70;99.90;;;;;;5071789;28;20434;-36
2022/06/13 03:51:35;;;;;;;7.80;4.40;;;13.80;99.90;;;;;;5073039;28;20896;-35
2022/06/13 03:54:32;;;;;;;7.13;4.33;;;13.80;99.90;;;;;;5072655;28;20423;-36
2022/06/13 03:57:10;;;;;;;5.20;3.83;;;13.90;99.90;;;;;;5065522;28;20436;-35
2022/06/13 03:59:46;;;;;;;5.70;4.10;;;13.90;99.90;;;;;;5066965;28;20426;-35
2022/06/13 04:02:14;;;;;;;6.43;4.30;;;13.90;99.90;;;;;;5072621;28;20480;-36
2022/06/13 04:04:53;;;;;;;5.90;4.00;;;14.00;99.90;;;;;;5072358;28;21037;-35
2022/06/13 04:07:21;;;;;;;7.37;4.27;;;13.90;99.90;;;;;;5071912;28;20419;-35
2022/06/13 04:09:58;;;;;;;9.43;4.20;;;13.90;99.90;;;;;;5071978;28;21087;-36
2022/06/13 04:12:39;;;;;;;10.27;4.50;;;13.90;99.90;;;;;;5072432;28;20977;-35
2022/06/13 04:15:37;;;;;;;6.17;4.70;;;14.00;99.90;;;;;;5072067;28;20459;-35
2022/06/13 04:18:16;;;;;;;7.00;4.13;;;14.00;99.90;;;;;;5071274;28;20416;-36
2022/06/13 04:21:22;;;;;;;4.73;3.67;;;14.00;99.90;;;;;;5066189;28;20766;-35
2022/06/13 04:24:15;;;;;;;7.50;4.47;;;14.00;99.90;;;;;;5071564;28;20423;-35
2022/06/13 04:27:03;;;;;;;8.70;4.30;;;14.00;99.90;;;;;;5071755;28;20423;-36
2022/06/13 04:29:45;;;;;;;7.37;4.90;;;13.90;99.90;;;;;;5071672;28;20426;-35
2022/06/13 04:32:18;;;;;;;8.13;4.30;;;13.90;99.90;;;;;;5069257;28;20419;-35
2022/06/13 04:34:50;;;;;;;4.77;4.27;;;14.00;99.90;;;;;;5071479;28;20507;-35
2022/06/13 04:37:18;;;;;;;5.40;3.97;;;14.00;99.90;;;;;;5069936;28;20431;-35
2022/06/13 04:39:47;;;;;;;4.50;4.10;;;14.00;99.90;;;;;;5071737;28;20430;-36
2022/06/13 04:42:16;;;;;;;6.50;4.43;;;13.90;99.90;;;;;;5053624;28;20432;-35
2022/06/13 04:44:44;;;;;;;6.07;4.77;;;13.90;99.90;;;;;;5047596;28;20437;-35
2022/06/13 04:47:14;;;;;;;9.90;4.60;;;14.00;99.90;;;;;;5052764;28;20419;-36
2022/06/13 04:49:50;;;;;;;8.47;4.50;;;14.00;99.90;;;;;;5060749;28;20523;-36
2022/06/13 04:52:30;;;;;;;9.63;5.97;;;14.00;99.90;;;;;;5049453;28;20424;-35
2022/06/13 04:55:40;;;;;;;5.60;4.40;;;14.00;99.90;;;;;;5065817;28;20471;-36
2022/06/13 04:58:27;;;;;;;8.80;5.20;;;14.10;99.90;;;;;;5034467;28;20444;-35
2022/06/13 05:01:03;;;;;;;9.57;4.60;;;14.10;99.90;;;;;;5048470;28;20539;-35
2022/06/13 05:03:35;;;;;;;6.20;4.13;;;14.20;99.90;;;;;;5064583;28;20423;-36
2022/06/13 05:06:06;;;;;;;10.40;4.80;;;14.10;99.90;;;;;;5070895;28;20427;-35
2022/06/13 05:08:36;;;;;;;8.40;4.77;;;14.20;99.90;;;;;;5070531;28;20806;-35
2022/06/13 05:11:27;;;;;;;11.00;4.80;;;14.20;99.90;;;;;;5070503;28;20755;-36
2022/06/13 05:13:57;;;;;;;7.53;4.50;;;14.20;99.90;;;;;;5056376;28;20525;-36
2022/06/13 05:16:54;;;;;;;14.17;5.67;;;14.30;99.90;;;;;;5059946;28;20451;-36
2022/06/13 05:19:59;;;;;;;8.70;5.00;;;14.30;99.90;;;;;;5048540;28;20785;-36
2022/06/13 05:22:49;;;;;;;13.83;5.87;;;14.30;99.90;;;;;;5059349;28;20432;-36
2022/06/13 05:25:33;;;;;;;10.47;6.73;;;14.20;99.90;;;;;;5070995;28;20450;-36
2022/06/13 05:27:59;;;;;;;10.97;5.80;;;14.10;99.90;;;;;;5054229;28;20420;-36
2022/06/13 05:30:26;;;;;;;9.00;5.20;;;14.10;99.90;;;;;;5056626;28;20852;-36
2022/06/13 05:32:52;;;;;;;12.27;5.93;;;14.00;99.90;;;;;;5058982;28;20429;-36
2022/06/13 05:35:28;;;;;;;7.20;5.70;;;14.10;99.90;;;;;;5059608;28;20465;-36
2022/06/13 05:37:55;;;;;;;10.97;6.70;;;14.20;99.90;;;;;;5054077;28;20416;-35
2022/06/13 05:40:22;;;;;;;10.53;7.17;;;14.30;99.90;;;;;;5049209;28;20428;-35
2022/06/13 05:42:49;;;;;;;8.60;6.50;;;14.30;99.90;;;;;;5050186;28;20453;-36
2022/06/13 05:45:17;;;;;;;8.40;6.60;;;14.30;99.90;;;;;;5051267;28;20424;-36
2022/06/13 05:47:45;;;;;;;14.77;7.47;;;14.30;99.90;;;;;;5049526;28;20432;-36
2022/06/13 05:50:21;;;;;;;11.20;7.63;;;14.30;99.90;;;;;;5052703;28;20458;-36
2022/06/13 05:52:46;;;;;;;12.57;7.43;;;14.30;99.90;;;;;;5049268;28;20448;-36
2022/06/13 05:55:12;;;;;;;8.87;7.20;;;14.30;99.90;;;;;;5049284;28;20541;-36
2022/06/13 05:57:39;;;;;;;11.03;6.83;;;14.40;99.90;;;;;;5048770;28;20196;-36
2022/06/13 06:00:11;;;;;;;11.43;7.93;;;14.40;99.90;;;;;;5054722;28;20419;-36
2022/06/13 06:02:37;;;;;;;14.33;7.63;;;14.30;99.90;;;;;;5061316;28;20949;-36
2022/06/13 06:05:03;;;;;;;12.70;8.10;;;14.20;99.90;;;;;;5068890;28;20435;-36
2022/06/13 06:07:30;;;;;;;10.40;7.80;;;14.20;99.90;;;;;;5067405;28;20189;-36
2022/06/13 06:09:56;;;;;;;13.60;8.63;;;14.20;99.90;;;;;;5068944;28;20431;-36
2022/06/13 06:12:22;;;;;;;10.37;7.90;;;14.20;99.90;;;;;;5069262;28;20446;-36
2022/06/13 06:14:47;;;;;;;11.43;7.80;;;14.20;99.90;;;;;;5069353;28;20205;-36
2022/06/13 06:17:13;;;;;;;16.30;7.50;;;14.20;99.90;;;;;;5069644;28;20216;-36
2022/06/13 06:19:39;;;;;;;12.23;8.43;;;14.20;99.90;;;;;;5070033;28;20243;-36
2022/06/13 06:22:04;;;;;;;12.93;8.00;;;14.10;99.90;;;;;;5065425;28;20758;-36
2022/06/13 06:24:30;;;;;;;14.80;7.90;;;14.20;99.90;;;;;;5069759;28;20185;-35
2022/06/13 06:26:56;;;;;;;15.90;8.57;;;14.10;99.90;;;;;;5069404;28;20220;-36
2022/06/13 06:29:23;;;;;;;15.17;8.70;;;14.00;99.90;;;;;;5069621;28;20185;-35
2022/06/13 06:31:48;;;;;;;13.23;8.07;;;14.00;99.90;;;;;;5068417;28;20949;-36
2022/06/13 06:34:14;;;;;;;12.37;7.87;;;14.10;99.90;;;;;;5069789;28;20431;-35
2022/06/13 06:36:40;;;;;;;12.57;8.50;;;14.10;99.90;;;;;;5055200;28;20209;-36
2022/06/13 06:39:05;;;;;;;12.00;7.90;;;14.20;99.90;;;;;;5047999;28;20231;-36
2022/06/13 06:41:31;;;;;;;9.73;7.70;;;14.20;99.90;;;;;;5050736;28;20666;-36
2022/06/13 06:43:57;;;;;;;10.50;7.00;;;14.30;99.90;;;;;;5054850;28;20197;-36
2022/06/13 06:46:23;;;;;;;12.63;7.70;;;14.40;99.90;;;;;;5049522;28;20193;-36
2022/06/13 06:48:49;;;;;;;8.83;6.43;;;14.50;99.90;;;;;;5051350;28;20188;-36
2022/06/13 06:51:15;;;;;;;11.47;6.63;;;14.60;99.90;;;;;;5050866;28;20424;-36
2022/06/13 07:01:54;;;;;;;13.77;6.73;;;14.80;99.90;;;;;;5050062;28;20475;-36
2022/06/13 07:04:19;;;;;;;8.53;5.83;;;14.80;99.90;;;;;;5062215;28;20804;-36
2022/06/13 07:06:45;;;;;;;6.60;5.57;;;14.90;99.90;;;;;;5061584;28;20181;-36
2022/06/13 07:09:11;;;;;;;10.37;6.93;;;15.10;99.90;;;;;;5068922;28;20196;-36
2022/06/13 07:11:56;;;;;;;9.30;5.57;;;15.30;99.90;;;;;;5056182;28;20232;-36
2022/06/13 07:14:30;;;;;;;8.00;6.10;;;15.60;99.90;;;;;;5047109;28;20657;-36
2022/06/13 07:16:58;;;;;;;9.67;6.20;;;15.90;99.90;;;;;;5058224;28;20487;-36
2022/06/13 07:19:24;;;;;;;9.87;6.40;;;16.00;99.90;;;;;;5072009;28;20766;-36
2022/06/13 07:21:50;;;;;;;10.83;7.40;;;16.10;99.90;;;;;;5059112;28;20436;-36
2022/06/13 07:24:16;;;;;;;11.80;6.47;;;16.20;99.90;;;;;;5055339;28;20415;-36
2022/06/13 07:26:42;;;;;;;11.93;7.30;;;16.20;99.90;;;;;;5051982;28;20431;-36
2022/06/13 07:29:08;;;;;;;16.67;9.20;;;16.40;99.90;;;;;;5051167;28;20432;-36
2022/06/13 07:32:17;;;;;;;12.80;9.70;;;16.50;99.90;;;;;;5051255;28;20474;-36
2022/06/13 07:34:44;;;;;;;16.03;10.70;;;16.50;99.90;;;;;;5030175;28;21017;-36
2022/06/13 07:37:12;;;;;;;19.07;12.63;;;16.50;99.90;;;;;;5029375;28;20447;-36
2022/06/13 07:39:38;;;;;;;15.80;11.70;;;16.50;99.90;;;;;;5041184;28;20439;-36
2022/06/13 07:42:05;;;;;;;14.60;11.30;;;16.40;99.90;;;;;;5069166;28;20423;-36
2022/06/13 07:44:36;;;;;;;19.13;13.73;;;16.40;99.90;;;;;;5072573;28;20213;-36
2022/06/13 07:47:02;;;;;;;18.87;14.90;;;16.30;99.90;;;;;;5072184;28;20415;-36
2022/06/13 07:49:28;;;;;;;19.50;15.17;;;16.30;99.90;;;;;;5072657;28;20420;-36
2022/06/13 07:51:54;;;;;;;20.83;16.33;;;16.30;99.90;;;;;;5072650;28;20489;-36
2022/06/13 07:54:20;;;;;;;20.80;16.20;;;16.40;99.90;;;;;;5072331;28;20180;-36
2022/06/13 07:56:46;;;;;;;22.60;15.67;;;16.60;99.90;;;;;;5066769;28;20202;-36
2022/06/13 07:59:19;;;;;;;22.40;17.10;;;16.90;99.90;;;;;;5063304;28;20513;-36
2022/06/13 08:01:45;;;;;;;22.33;17.30;;;17.20;99.90;;;;;;5072441;28;20506;-36
2022/06/13 08:04:11;;;;;;;19.83;16.50;;;17.40;99.90;;;;;;5072383;28;20432;-36
2022/06/13 08:06:41;;;;;;;23.03;17.60;;;17.40;99.90;;;;;;5071851;28;20514;-36
2022/06/13 08:09:08;;;;;;;22.50;17.73;;;17.50;99.90;;;;;;5072227;28;20427;-36
2022/06/13 08:11:37;;;;;;;25.30;18.97;;;17.70;99.90;;;;;;5072182;28;20495;-36
2022/06/13 08:14:06;;;;;;;26.87;16.43;;;17.70;99.90;;;;;;5072121;28;20431;-36
2022/06/13 08:16:34;;;;;;;21.23;15.80;;;17.80;99.90;;;;;;5070668;28;20545;-36
2022/06/13 08:19:02;;;;;;;21.77;15.10;;;17.80;99.90;;;;;;5071877;28;20747;-36
2022/06/13 08:21:28;;;;;;;17.97;13.90;;;17.90;99.90;;;;;;5067812;28;20438;-36
2022/06/13 08:23:53;;;;;;;21.07;15.93;;;17.90;99.90;;;;;;5070478;28;20435;-36
2022/06/13 08:26:19;;;;;;;21.60;16.77;;;17.80;99.90;;;;;;5072219;28;20193;-36
2022/06/13 08:28:44;;;;;;;21.70;17.23;;;17.70;99.90;;;;;;5071155;28;20216;-36
2022/06/13 08:31:13;;;;;;;21.00;16.13;;;17.50;99.90;;;;;;5069604;28;20189;-36
2022/06/13 08:33:39;;;;;;;26.43;16.20;;;17.50;99.90;;;;;;5071718;28;20281;-36
2022/06/13 08:36:06;;;;;;;25.23;16.80;;;17.60;99.90;;;;;;5071753;28;20519;-36
2022/06/13 08:38:32;;;;;;;23.73;16.50;;;17.70;99.90;;;;;;5070730;28;20455;-36
2022/06/13 08:41:50;;;;;;;18.63;15.60;;;17.80;99.90;;;;;;5070561;28;20453;-36
2022/06/13 08:44:42;;;;;;;20.80;16.47;;;18.00;99.90;;;;;;5070743;28;20531;-36
2022/06/13 08:47:46;;;;;;;24.07;16.30;;;18.00;99.90;;;;;;5070261;28;20448;-36
2022/06/13 08:50:12;;;;;;;15.53;13.93;;;18.00;99.90;;;;;;5071098;28;20438;-36
2022/06/13 08:52:46;;;;;;;21.33;15.40;;;17.90;99.90;;;;;;5071565;28;20415;-36
2022/06/13 08:55:20;;;;;;;18.23;14.80;;;17.70;99.90;;;;;;5070834;28;20268;-36
2022/06/13 08:58:08;;;;;;;12.77;11.47;;;17.80;99.90;;;;;;5058246;28;20588;-36
2022/06/13 09:00:35;;;;;;;15.20;11.23;;;17.80;99.90;;;;;;5060035;28;20411;-36
2022/06/13 09:03:11;;;;;;;11.77;10.57;;;17.80;99.90;;;;;;5071350;28;20442;-36
2022/06/13 09:06:01;;;;;;;17.67;12.10;;;17.70;99.90;;;;;;5070995;28;20422;-36
2022/06/13 09:08:41;;;;;;;11.57;10.23;;;17.50;99.90;;;;;;5070629;28;20463;-36
2022/06/13 09:11:16;;;;;;;17.90;11.17;;;17.40;99.90;;;;;;5069898;28;20426;-36
2022/06/13 09:13:53;;;;;;;13.70;10.07;;;17.50;99.90;;;;;;5071254;28;20472;-36
2022/06/13 09:16:32;;;;;;;14.83;11.07;;;17.60;99.90;;;;;;5071223;28;20463;-36
2022/06/13 09:19:01;;;;;;;12.43;9.50;;;17.70;99.90;;;;;;5070870;28;20419;-37
2022/06/13 09:21:34;;;;;;;12.37;9.93;;;17.80;99.90;;;;;;5066402;28;20432;-36
2022/06/13 09:24:06;;;;;;;13.17;10.00;;;17.90;99.90;;;;;;5070873;28;20419;-36
2022/06/13 09:26:56;;;;;;;14.30;11.67;;;18.00;99.90;;;;;;5070204;28;20423;-36
2022/06/13 09:29:28;;;;;;;12.40;11.10;;;18.00;99.90;;;;;;5070708;28;20420;-36
2022/06/13 09:32:17;;;;;;;14.43;9.93;;;17.90;99.90;;;;;;5069425;28;20797;-36
2022/06/13 09:34:47;;;;;;;10.63;9.53;;;17.90;99.90;;;;;;5069765;28;20516;-36
2022/06/13 09:37:23;;;;;;;11.30;9.90;;;17.90;99.90;;;;;;5069961;28;20454;-36
2022/06/13 09:39:50;;;;;;;11.83;9.40;;;17.90;99.90;;;;;;5069275;28;20493;-36
2022/06/13 09:42:35;;;;;;;12.90;9.00;;;17.90;99.90;;;;;;5070413;28;20423;-36
2022/06/13 09:45:23;;;;;;;11.87;7.60;;;17.80;99.90;;;;;;5070283;28;20426;-36
2022/06/13 09:48:16;;;;;;;20.17;9.00;;;17.90;99.90;;;;;;5069880;28;20434;-36
2022/06/13 09:51:18;;;;;;;16.80;9.73;;;18.30;99.90;;;;;;5070390;28;20419;-36
2022/06/13 09:54:08;;;;;;;12.83;8.23;;;18.60;99.90;;;;;;5069210;28;20418;-36
2022/06/13 09:57:12;;;;;;;15.50;8.43;;;18.90;99.90;;;;;;5066970;28;20467;-36
2022/06/13 09:59:57;;;;;;;7.17;6.47;;;19.00;99.90;;;;;;5064791;28;20427;-36
2022/06/13 10:02:59;;;;;;;13.83;6.27;;;18.90;99.90;;;;;;5070230;28;20958;-36
2022/06/13 10:05:41;;;;;;;15.53;7.50;;;18.80;99.90;;;;;;5070163;28;20422;-36
2022/06/13 10:08:43;;;;;;;11.70;6.90;;;18.50;99.90;;;;;;5069366;28;20423;-36
2022/06/13 10:11:23;;;;;;;9.70;5.73;;;18.50;99.90;;;;;;5070106;28;20433;-36
2022/06/13 10:14:20;;;;;;;6.47;5.13;;;18.20;99.90;;;;;;5068891;28;20439;-36
2022/06/13 10:17:10;;;;;;;9.90;4.80;;;18.30;99.90;;;;;;5069386;28;20459;-36
2022/06/13 10:19:57;;;;;;;6.60;4.03;;;18.70;99.90;;;;;;5070020;28;20415;-36
2022/06/13 10:22:34;;;;;;;6.33;4.17;;;19.00;99.90;;;;;;5064888;28;20419;-36
2022/06/13 10:25:24;;;;;;;10.67;4.67;;;19.30;99.90;;;;;;5069918;28;20427;-36
2022/06/13 10:28:03;;;;;;;8.03;3.90;;;19.60;99.90;;;;;;5069337;28;20419;-36
2022/06/13 10:30:51;;;;;;;5.27;3.37;;;20.00;99.90;;;;;;5068350;28;20824;-36
2022/06/13 10:33:41;;;;;;;6.20;3.43;;;20.20;99.90;;;;;;5069873;28;20431;-36
2022/06/13 10:36:15;;;;;;;4.87;3.17;;;20.60;99.90;;;;;;5069907;28;20463;-36
2022/06/13 10:38:49;;;;;;;5.33;2.93;;;20.60;99.20;;;;;;5067761;28;20419;-36
2022/06/13 10:41:15;;;;;;;5.23;2.90;;;20.50;98.10;;;;;;5068652;28;20419;-37
2022/06/13 10:43:42;;;;;;;9.33;3.87;;;20.40;98.70;;;;;;5069350;28;20442;-36
2022/06/13 10:46:13;;;;;;;4.23;2.80;;;20.30;97.70;;;;;;5052008;28;20827;-36
2022/06/13 10:48:46;;;;;;;6.70;2.60;;;20.30;99.10;;;;;;5067872;28;20832;-36
2022/06/13 10:51:13;;;;;;;5.40;2.33;;;20.30;97.80;;;;;;5069860;28;21001;-36
2022/06/13 10:54:08;;;;;;;6.67;3.00;;;20.10;97.80;;;;;;5071617;28;20480;-36
2022/06/13 10:56:49;;;;;;;5.13;2.57;;;20.00;97.70;;;;;;5068066;28;20474;-36
2022/06/13 10:59:22;;;;;;;4.87;2.50;;;20.00;98.60;;;;;;5065090;28;21091;-36
2022/06/13 11:02:03;;;;;;;4.90;3.03;;;20.20;99.40;;;;;;5072443;28;20438;-36
2022/06/13 11:04:34;;;;;;;4.40;2.80;;;20.50;99.70;;;;;;5073261;28;20854;-36
2022/06/13 11:07:19;;;;;;;5.93;2.90;;;20.70;98.60;;;;;;5073175;28;20476;-36
2022/06/13 11:09:57;;;;;;;3.50;2.73;;;20.80;97.10;;;;;;5073350;28;20426;-36
2022/06/13 11:12:32;;;;;;;6.00;3.10;;;21.00;98.20;;;;;;5073607;28;21243;-36
2022/06/13 11:23:20;;;;;;;3.97;1.90;;;20.40;96.70;;;;;;5052311;28;20450;-36
2022/06/13 11:25:58;;;;;;;3.73;2.10;;;20.10;96.00;;;;;;5073169;28;20411;-36
2022/06/13 11:28:29;;;;;;;5.33;2.00;;;19.90;97.00;;;;;;5071575;28;20898;-37
2022/06/13 11:31:17;;;;;;;5.40;2.20;;;19.90;97.20;;;;;;5069327;28;20435;-36
2022/06/13 11:33:47;;;;;;;4.80;2.30;;;19.90;97.50;;;;;;5071639;28;20549;-36
2022/06/13 11:36:16;;;;;;;4.80;2.53;;;20.00;95.60;;;;;;5055252;28;20837;-36
2022/06/13 11:38:56;;;;;;;2.80;1.73;;;20.00;95.90;;;;;;5072176;28;20407;-36
2022/06/13 11:41:28;;;;;;;2.83;1.83;;;20.30;95.60;;;;;;5072836;28;20901;-36
2022/06/13 11:44:03;;;;;;;2.33;1.70;;;20.40;96.00;;;;;;5072514;28;20423;-36
2022/06/13 11:46:35;;;;;;;2.33;1.53;;;20.60;95.80;;;;;;5072748;28;20427;-36
2022/06/13 11:49:16;;;;;;;4.23;2.23;;;20.90;97.10;;;;;;5071376;28;20476;-36
2022/06/13 11:52:11;;;;;;;4.33;1.90;;;21.10;95.10;;;;;;5072611;28;20480;-37
2022/06/13 11:54:41;;;;;;;4.00;1.80;;;21.10;94.40;;;;;;5072610;28;20882;-36
2022/06/13 11:57:13;;;;;;;3.73;1.80;;;21.00;93.30;;;;;;5064614;28;21143;-36
2022/06/13 12:00:05;;;;;;;2.73;1.53;;;20.90;94.20;;;;;;5067051;28;20431;-36
2022/06/13 12:02:49;;;;;;;2.57;1.50;;;21.00;93.60;;;;;;5072398;28;20426;-36
2022/06/13 12:05:19;;;;;;;3.03;1.57;;;21.20;93.20;;;;;;5071171;28;20427;-36
2022/06/13 12:08:19;;;;;;;2.20;1.37;;;21.30;92.50;;;;;;5071614;28;20419;-36
2022/06/13 12:11:02;;;;;;;1.83;1.37;;;21.40;93.10;;;;;;5060030;28;20435;-36
2022/06/13 12:13:32;;;;;;;1.30;1.20;;;21.50;90.90;;;;;;5072301;28;20423;-36
2022/06/13 12:16:17;;;;;;;1.80;1.13;;;21.40;91.40;;;;;;5070799;28;21026;-36
2022/06/13 12:19:08;;;;;;;2.00;1.30;;;21.60;91.10;;;;;;5071574;28;21131;-36
2022/06/13 12:21:55;;;;;;;3.13;1.30;;;21.70;90.70;;;;;;5066779;28;20794;-36
2022/06/13 12:24:37;;;;;;;1.43;1.00;;;21.80;91.30;;;;;;5071989;28;20420;-36
2022/06/13 12:27:06;;;;;;;3.77;1.60;;;21.70;90.60;;;;;;5071648;28;20986;-36
2022/06/13 12:29:53;;;;;;;2.10;1.03;;;21.30;90.90;;;;;;5071934;28;20422;-36
2022/06/13 12:32:25;;;;;;;5.63;1.80;;;21.00;92.10;;;;;;5069813;28;20434;-36
2022/06/13 12:35:01;;;;;;;2.10;1.40;;;20.90;94.30;;;;;;5071821;28;20451;-36
2022/06/13 12:37:45;;;;;;;2.10;1.17;;;20.90;94.20;;;;;;5070048;28;20423;-36
2022/06/13 12:40:33;;;;;;;2.00;1.00;;;21.10;92.90;;;;;;5071499;28;20443;-36
2022/06/13 12:43:24;;;;;;;2.77;1.17;;;21.30;92.30;;;;;;5071810;28;20981;-36
2022/06/13 12:46:00;;;;;;;3.33;1.13;;;21.40;91.80;;;;;;5070118;28;20963;-36
2022/06/13 12:48:28;;;;;;;2.63;1.17;;;21.40;92.70;;;;;;5070792;28;20418;-37
2022/06/13 12:51:15;;;;;;;2.00;1.00;;;21.40;91.70;;;;;;5071626;28;20424;-36
2022/06/13 12:54:11;;;;;;;2.00;1.10;;;21.20;92.30;;;;;;5071664;28;20918;-36
2022/06/13 12:56:50;;;;;;;3.37;1.10;;;21.30;92.80;;;;;;5067599;28;21012;-36
2022/06/13 12:59:31;;;;;;;3.20;1.43;;;21.40;93.50;;;;;;5063106;28;20426;-36
2022/06/13 13:02:34;;;;;;;2.00;1.00;;;21.50;93.70;;;;;;5071324;28;20548;-36
2022/06/13 13:05:20;;;;;;;2.60;1.47;;;21.30;91.70;;;;;;5071297;28;20419;-36
2022/06/13 13:08:29;;;;;;;1.77;0.90;;;21.40;91.80;;;;;;5070546;28;20462;-36
2022/06/13 13:11:14;;;;;;;2.60;0.97;;;21.50;92.10;;;;;;5048401;28;20436;-36
2022/06/13 13:13:44;;;;;;;5.53;1.30;;;21.60;90.30;;;;;;5048338;28;20823;-36
2022/06/13 13:16:24;;;;;;;1.90;0.93;;;21.70;91.70;;;;;;5062649;28;20474;-36
2022/06/13 13:19:05;;;;;;;4.07;0.90;;;21.90;91.30;;;;;;5069192;28;20473;-36
2022/06/13 13:21:40;;;;;;;2.47;0.80;;;21.90;89.20;;;;;;5066626;28;20419;-36
2022/06/13 13:24:36;;;;;;;1.90;1.20;;;21.80;91.00;;;;;;5070581;28;20446;-36
2022/06/13 13:27:12;;;;;;;3.00;1.30;;;21.90;91.30;;;;;;5070287;28;20427;-36
2022/06/13 13:30:02;;;;;;;2.33;1.07;;;21.90;87.80;;;;;;5069732;28;20435;-36
2022/06/13 13:32:39;;;;;;;2.70;1.00;;;21.70;88.70;;;;;;5067069;28;20454;-36
2022/06/13 13:35:22;;;;;;;2.10;1.00;;;21.50;89.70;;;;;;5070778;28;20454;-36
2022/06/13 13:37:59;;;;;;;2.60;0.93;;;21.40;89.70;;;;;;5069984;28;20914;-36
2022/06/13 13:40:51;;;;;;;1.97;1.20;;;21.30;91.60;;;;;;5070488;28;20407;-36
2022/06/13 13:43:27;;;;;;;1.73;1.17;;;21.40;92.70;;;;;;5070442;28;20425;-37
2022/06/13 13:46:11;;;;;;;2.93;1.00;;;21.60;92.40;;;;;;5070575;28;20425;-36
2022/06/13 13:48:40;;;;;;;1.83;1.27;;;21.70;91.80;;;;;;5069368;28;20422;-36
2022/06/13 13:51:38;;;;;;;2.43;1.00;;;21.80;91.40;;;;;;5070318;28;20431;-36